sensor_id;sensor_type;location;lat;lon;timestamp;P1;durP1;ratioP1;P2;durP2;ratioP2
17496;SDS011;62150;43.582;1.456;2022-09-09T05:55:16;3.33;;;1.85;;
17496;SDS011;62150;43.582;1.456;2022-09-09T05:57:47;4.35;;;1.98;;
17496;SDS011;62150;43.582;1.456;2022-09-09T06:00:17;3.15;;;1.90;;
17496;SDS011;62150;43.582;1.456;2022-09-09T06:02:49;3.17;;;2.00;;
17496;SDS011;62150;43.582;1.456;2022-09-09T06:05:18;4.88;;;2.00;;
17496;SDS011;62150;43.582;1.456;2022-09-09T06:07:47;4.47;;;2.50;;
17496;SDS011;62150;43.582;1.456;2022-09-09T06:10:19;3.60;;;1.85;;
17496;SDS011;62150;43.582;1.456;2022-09-09T06:12:47;4.03;;;2.08;;
17496;SDS011;62150;43.582;1.456;2022-09-09T06:15:15;3.63;;;2.00;;
17496;SDS011;62150;43.582;1.456;2022-09-09T06:17:42;4.50;;;2.20;;
17496;SDS011;62150;43.582;1.456;2022-09-09T06:20:10;4.47;;;2.15;;
17496;SDS011;62150;43.582;1.456;2022-09-09T06:22:39;3.78;;;2.05;;
17496;SDS011;62150;43.582;1.456;2022-09-09T06:25:07;5.80;;;2.20;;
17496;SDS011;62150;43.582;1.456;2022-09-09T06:27:37;5.65;;;2.22;;
17496;SDS011;62150;43.582;1.456;2022-09-09T06:30:06;2.72;;;1.90;;
17496;SDS011;62150;43.582;1.456;2022-09-09T06:32:34;3.95;;;2.03;;
17496;SDS011;62150;43.582;1.456;2022-09-09T06:35:03;4.78;;;2.08;;
17496;SDS011;62150;43.582;1.456;2022-09-09T06:37:31;4.65;;;2.20;;
17496;SDS011;62150;43.582;1.456;2022-09-09T06:39:58;3.10;;;2.03;;
17496;SDS011;62150;43.582;1.456;2022-09-09T06:42:26;4.25;;;2.40;;
17496;SDS011;62150;43.582;1.456;2022-09-09T06:44:55;3.13;;;2.00;;
17496;SDS011;62150;43.582;1.456;2022-09-09T06:47:22;4.60;;;2.08;;
17496;SDS011;62150;43.582;1.456;2022-09-09T06:49:50;3.63;;;2.20;;
17496;SDS011;62150;43.582;1.456;2022-09-09T06:52:18;5.55;;;2.30;;
17496;SDS011;62150;43.582;1.456;2022-09-09T06:54:45;3.78;;;2.00;;
17496;SDS011;62150;43.582;1.456;2022-09-09T06:57:13;3.55;;;2.17;;
17496;SDS011;62150;43.582;1.456;2022-09-09T06:59:40;4.15;;;2.17;;
17496;SDS011;62150;43.582;1.456;2022-09-09T07:02:09;6.60;;;2.30;;
17496;SDS011;62150;43.582;1.456;2022-09-09T07:04:37;5.28;;;2.13;;
17496;SDS011;62150;43.582;1.456;2022-09-09T07:07:04;4.88;;;2.20;;
17496;SDS011;62150;43.582;1.456;2022-09-09T07:09:32;5.45;;;2.30;;
17496;SDS011;62150;43.582;1.456;2022-09-09T07:12:00;3.88;;;2.20;;
17496;SDS011;62150;43.582;1.456;2022-09-09T07:14:31;6.75;;;2.20;;
17496;SDS011;62150;43.582;1.456;2022-09-09T07:16:59;5.32;;;2.53;;
17496;SDS011;62150;43.582;1.456;2022-09-09T07:19:28;3.80;;;2.03;;
17496;SDS011;62150;43.582;1.456;2022-09-09T07:21:55;4.03;;;2.00;;
17496;SDS011;62150;43.582;1.456;2022-09-09T07:24:23;3.97;;;2.25;;
17496;SDS011;62150;43.582;1.456;2022-09-09T07:26:50;3.60;;;2.30;;
17496;SDS011;62150;43.582;1.456;2022-09-09T07:29:18;5.95;;;2.22;;
17496;SDS011;62150;43.582;1.456;2022-09-09T07:31:45;5.25;;;2.40;;
17496;SDS011;62150;43.582;1.456;2022-09-09T07:34:13;5.43;;;2.40;;
17496;SDS011;62150;43.582;1.456;2022-09-09T07:36:42;4.78;;;2.40;;
17496;SDS011;62150;43.582;1.456;2022-09-09T07:39:12;3.45;;;2.10;;
17496;SDS011;62150;43.582;1.456;2022-09-09T07:41:40;3.15;;;2.15;;
17496;SDS011;62150;43.582;1.456;2022-09-09T07:44:11;4.47;;;2.20;;
17496;SDS011;62150;43.582;1.456;2022-09-09T07:46:40;5.47;;;2.30;;
17496;SDS011;62150;43.582;1.456;2022-09-09T07:49:08;5.38;;;2.40;;
17496;SDS011;62150;43.582;1.456;2022-09-09T07:51:37;4.72;;;2.10;;
17496;SDS011;62150;43.582;1.456;2022-09-09T07:54:08;4.05;;;2.20;;
17496;SDS011;62150;43.582;1.456;2022-09-09T07:56:37;3.67;;;2.10;;
17496;SDS011;62150;43.582;1.456;2022-09-09T07:59:05;4.45;;;2.30;;
17496;SDS011;62150;43.582;1.456;2022-09-09T08:01:36;4.80;;;2.20;;
17496;SDS011;62150;43.582;1.456;2022-09-09T08:04:06;3.60;;;1.92;;
17496;SDS011;62150;43.582;1.456;2022-09-09T08:06:35;3.97;;;2.05;;
17496;SDS011;62150;43.582;1.456;2022-09-09T08:09:04;4.68;;;2.30;;
17496;SDS011;62150;43.582;1.456;2022-09-09T08:11:35;4.90;;;1.95;;
17496;SDS011;62150;43.582;1.456;2022-09-09T08:14:03;6.07;;;2.10;;
17496;SDS011;62150;43.582;1.456;2022-09-09T08:16:34;4.78;;;2.00;;
17496;SDS011;62150;43.582;1.456;2022-09-09T20:15:15;4.25;;;1.67;;
17496;SDS011;62150;43.582;1.456;2022-09-09T20:17:43;3.95;;;1.70;;
17496;SDS011;62150;43.582;1.456;2022-09-09T20:20:10;3.92;;;1.60;;
17496;SDS011;62150;43.582;1.456;2022-09-09T20:22:38;3.17;;;1.73;;
17496;SDS011;62150;43.582;1.456;2022-09-09T20:25:06;4.03;;;1.70;;
17496;SDS011;62150;43.582;1.456;2022-09-09T20:27:33;4.85;;;1.75;;
17496;SDS011;62150;43.582;1.456;2022-09-09T20:30:01;3.00;;;1.80;;
17496;SDS011;62150;43.582;1.456;2022-09-09T20:32:30;2.83;;;1.80;;
17496;SDS011;62150;43.582;1.456;2022-09-09T20:34:58;2.45;;;1.50;;
17496;SDS011;62150;43.582;1.456;2022-09-09T20:37:25;3.47;;;1.58;;
17496;SDS011;62150;43.582;1.456;2022-09-09T20:39:53;3.65;;;1.60;;
17496;SDS011;62150;43.582;1.456;2022-09-09T20:42:20;6.30;;;1.85;;
17496;SDS011;62150;43.582;1.456;2022-09-09T20:44:49;3.53;;;1.70;;
17496;SDS011;62150;43.582;1.456;2022-09-09T20:47:16;4.85;;;1.70;;
17496;SDS011;62150;43.582;1.456;2022-09-09T20:49:45;3.75;;;1.63;;
17496;SDS011;62150;43.582;1.456;2022-09-09T20:52:13;3.80;;;1.70;;
17496;SDS011;62150;43.582;1.456;2022-09-09T20:54:44;2.22;;;1.63;;
17496;SDS011;62150;43.582;1.456;2022-09-09T20:57:12;2.92;;;1.60;;
17496;SDS011;62150;43.582;1.456;2022-09-09T20:59:46;2.17;;;1.70;;
17496;SDS011;62150;43.582;1.456;2022-09-09T21:02:15;4.30;;;1.70;;
17496;SDS011;62150;43.582;1.456;2022-09-09T21:04:43;2.78;;;1.50;;
17496;SDS011;62150;43.582;1.456;2022-09-09T21:07:12;3.50;;;1.75;;
17496;SDS011;62150;43.582;1.456;2022-09-09T21:09:39;3.65;;;1.60;;
17496;SDS011;62150;43.582;1.456;2022-09-09T21:12:07;3.30;;;1.48;;
17496;SDS011;62150;43.582;1.456;2022-09-09T21:14:34;4.05;;;1.70;;
17496;SDS011;62150;43.582;1.456;2022-09-09T21:17:02;3.35;;;1.70;;
17496;SDS011;62150;43.582;1.456;2022-09-09T21:19:29;3.08;;;1.70;;
17496;SDS011;62150;43.582;1.456;2022-09-09T21:21:59;4.22;;;1.80;;
17496;SDS011;62150;43.582;1.456;2022-09-09T21:24:26;3.85;;;1.75;;
17496;SDS011;62150;43.582;1.456;2022-09-09T21:26:54;3.65;;;1.60;;
17496;SDS011;62150;43.582;1.456;2022-09-09T21:29:21;2.03;;;1.60;;
